Onsale Center
SKU Save Title date
Power Supplies
36251 $20.63 ANTEC EA550G PRO 550W Power Supply 2019-11-20 - 2019-11-25
36246 $5.63 ANTEC 550W Power Supply 2019-11-20 - 2019-11-25
36245 $6.66 ANTEC VP650 PLUS 2019-11-20 - 2019-11-25
35869 $12.00 Antec Power Supply EA650G PRO 650W 12 V 120mm SATA PCI Express 80 PIUS GOLD Retail 2019-11-19 - 2019-11-24
35868 $4.60 Antec Power Supply VP500 PLUS 500W Non-Modular 12V 120mm Fan ActivePFC 80+ 2019-11-20 - 2019-11-25
Computer Cases
36260 $5.66 Antec Case GX202 White Mid Tower ATX/Micro-ATX/ITX USB3.0 MIC/AUDIO Retail 2019-11-20 - 2019-11-25
36259 $15.31 Antec The Prime Dark Avenger DA601 Authentic Mid-Tower Gaming Case 2019-11-20 - 2019-11-25
36258 $13.31 Antec The Original Dark Phantom DP501 Minimal Mid-Tower Gaming Case 2019-11-20 - 2019-11-25
35410 $5.00 Antec Case P6 tempered glass MATX BLK case USB3.0 with 120mm white fan Brown Box 2019-11-19 - 2019-11-24
35409 $9.26 Antec Case DF500 RGB Dark Fleet series gaming mid-tower with RGB lighting Retail 2019-11-20 - 2019-11-25
34520 $9.26 Antec P8 TEMPERED GLASS MID-TOWER ATX CASE 2019-11-20 - 2019-11-25
33060 $4.60 Antec NSK 4100 CASE 11 DRIVE BAYS,7 x Expansion Slots,2 x USB 3.0 Audio In/Out 2019-11-20 - 2019-11-25
30247 $10.26 Antec P100 Mid Tower Case 2019-11-20 - 2019-11-25
Motherboards
36278 $10.00 Gigabyte X570 AORUS PRO WIFI (Rev. 1.0) Desktop Motherboard 2019-11-19 - 2019-11-24
Hard Drives
34441 $24.00 SEAGATE ENTERPRISE STORAGE WVAES Enterprise Capacity 3.5 HDD Helium 512E SAS 2019-11-20 - 2019-11-25
34090 $5.00 Western Digital Purple 4TB Surveillance Hard Drive 5400RPM 3.5" 2019-11-20 - 2019-11-25
32678 $10.00 SEAGATE ST2000NM0045 2019-11-20 - 2019-11-25
32438 $8.00 Seagate ENTERPRISE CAPACITY 3.5" 4TB Hard Drive, 7200RPM, Buffer 128MB, Sata 2019-11-20 - 2019-11-25
32430 $14.00 SEAGATE ST3000NM0005 2019-11-20 - 2019-11-25
32425 $17.00 Seagate 4TB Hard Drive 5900RPM, SATA 6Gb/s, 64MB Cache ST4000VN008 2019-11-20 - 2019-11-25
30819 $30.00 Seagate 8TB Hard Drive ENT CAP 3.5" HDD SATA 7200RPM 256MB Cache ST8000NM0055 2019-11-20 - 2019-11-25
30693 $3.25 Western Digital BLUE 4TB Hard Drive SATA 6 GB/S 64MB 5400RPM WD40EZRZ 2019-11-20 - 2019-11-25
30692 $7.00 Western Digital BLUE 3TB Hard Drive SATA 6 GB/S 64MB 5400RPM 3.5" 2019-11-20 - 2019-11-25
29112 $40.00 Western Digital Red 6TB Hard Drive 5400rpm 64MB Cache 3.5" SATA WD60EFRX 2019-11-20 - 2019-11-25
27570 $10.00 Western Digital Red 4TB Hard Drive 5400rpm 64 MB Buffer 3.5" SATA WD40EFRX 2019-11-20 - 2019-11-25
Laptops
36219 $122.54 LENOVO COMMERCIAL 20N20023CA Notebook 2019-11-20 - 2019-11-25
36210 $54.12 LENOVO COMMERCIAL 20N2002BUS Notebook 2019-11-20 - 2019-11-25
36203 $250.00 HP INC. 8MT61UT#ABA Notebook 2019-11-20 - 2019-11-25
36198 $250.00 HP INC. 7KP95UT#ABL Notebook 2019-11-20 - 2019-11-25
36194 $300.00 HP INC. 7KT76UT#ABA Notebook 2019-11-20 - 2019-11-25
36185 $47.03 LENOVO COMMERCIAL 20N2003NUS Notebook 2019-11-20 - 2019-11-25
36181 $59.68 LENOVO COMMERCIAL 20Q00044US Notebook 2019-11-20 - 2019-11-25
36173 $188.00 LENOVO CONSUMER 81R00007US Notebook 2019-11-20 - 2019-11-25
36172 $175.92 LENOVO CONSUMER 81R00004US Notebook 2019-11-20 - 2019-11-25
36162 $250.00 HP INC. 7JM77UT#ABA Notebook 2019-11-20 - 2019-11-25
36160 $250.00 HP INC. 7KJ17UT#ABA Notebook 2019-11-20 - 2019-11-25
36159 $300.00 HP INC. 7KQ05UT#ABA Notebook 2019-11-20 - 2019-11-25
36144 $250.00 HP INC. 7JM76UT#ABA Notebook 2019-11-20 - 2019-11-25
36143 $300.00 HP INC. 7JM79UT#ABA Notebook 2019-11-20 - 2019-11-25
36142 $250.00 HP INC. 7JN64UT#ABA Notebook 2019-11-20 - 2019-11-25
36140 $300.00 HP INC. 7KQ06UT#ABA Notebook 2019-11-20 - 2019-11-25
36139 $300.00 HP INC. 7KU63UT#ABA Notebook 2019-11-20 - 2019-11-25
36138 $250.00 HP INC. 7KP95UT#ABA Notebook 2019-11-20 - 2019-11-25
36093 $52.25 LENOVO COMMERCIAL 20R9005RUS Notebook 2019-11-20 - 2019-11-25
36092 $55.26 LENOVO COMMERCIAL 20R9005TUS Notebook 2019-11-20 - 2019-11-25
36091 $60.26 LENOVO COMMERCIAL 20R9005VUS Notebook 2019-11-20 - 2019-11-25
36090 $52.75 LENOVO COMMERCIAL 20RM0009US Notebook 2019-11-20 - 2019-11-25
36089 $56.01 LENOVO COMMERCIAL 20RM0008US Notebook 2019-11-20 - 2019-11-25
36088 $52.75 LENOVO COMMERCIAL 20RM000TCA Notebook 2019-11-20 - 2019-11-25
36079 $300.00 HP INC. 7KQ47UT#ABA Notebook 2019-11-20 - 2019-11-25
36012 $111.25 LENOVO COMMERCIAL 20NB005MCA Notebook 2019-11-20 - 2019-11-25
36011 $151.84 LENOVO COMMERCIAL 20N2002AUS Notebook 2019-11-20 - 2019-11-25
36010 $77.50 LENOVO COMMERCIAL 20NB001JCA Notebook 2019-11-20 - 2019-11-25
36006 $193.49 LENOVO COMMERCIAL 20L7S2QV00 Notebook 2019-11-20 - 2019-11-25
36004 $177.85 LENOVO COMMERCIAL 20NN0018US Notebook 2019-11-20 - 2019-11-25
35960 $100.00 HP ProBook 450 G6 Notebook Intel i5-8265U 8GB RAM, 256GB SSD, Win10 Pro, 15.6" 2019-11-20 - 2019-11-25
35931 $100.00 HP 6QJ33UT#ABL Notebook I5-8265U 15 4G/500G 2019-11-20 - 2019-11-25
35930 $100.00 HP 6QJ33UT#ABA Notebook 2019-11-20 - 2019-11-25
35928 $100.00 HP 6QJ31UT#ABA Notebook 2019-11-20 - 2019-11-25
35837 $21.50 Lenovo ThinkPad Edge E590 20NB001NUS Notebook i3-8145U 8GB RAM, 500GB HDD, 15.6" 2019-11-20 - 2019-11-25
35776 $476.70 Lenovo ThinkPad P52 Notebook, i7-8850H,16GB RAM,512GB SSD, Quadro P2000,Win10 2019-11-20 - 2019-11-25
35765 $300.00 Microsoft Surface Laptop 2 Notebook Intel i7,16GB RAM, 512GB SSD, 13.5", Win 10 2019-11-20 - 2019-11-25
35621 $65.00 HP 5LP09UA#ABL Notebook 2019-11-20 - 2019-11-25
35401 $200.00 HP OMEN 17-an120ca Notebook,Intel i7-8750H,16GB SDRAM,1TB HDD+256GB SSD,GTX 1060 2019-11-20 - 2019-11-25
35384 $200.00 HP OMEN 17-an188nr Notebook,i7-8750H,32GB RAM,256GB SSD+2 TB HDD, GTX1070,Win10 2019-11-20 - 2019-11-25
35175 $50.00 HP ENVY 13-ah0001ca Notebook, i5-8250U, 8GB RAM, 13.3", 256GB SSD, Win10 Home 2019-11-20 - 2019-11-25
35132 $50.00 HP Envy 13-ah0002ca Notebook,i5-8250U,8GB RAM, 256GB SSD, Windows 10 Home 2019-11-20 - 2019-11-25
Tablets
35670 $9.84 Lenovo 81MD001VUS 2019-11-20 - 2019-11-25

Copyrights © 2004 - 2019 - Lu Computers. All rights reserved.